createdAt,value
2022-08-20T07:35:49.160Z,23.47
2022-08-20T07:38:24.103Z,23.19
2022-08-20T07:40:54.136Z,23.06
2022-08-20T07:43:24.104Z,23.25
2022-08-20T07:45:55.463Z,23.27
2022-08-20T07:48:31.791Z,23.72
2022-08-20T07:51:03.784Z,23.49
2022-08-20T07:53:35.962Z,23.76
2022-08-20T07:56:10.314Z,23.58
2022-08-20T07:58:43.755Z,23.69
2022-08-20T08:01:11.804Z,23.60
2022-08-20T08:03:49.200Z,23.86
2022-08-20T08:06:29.374Z,23.72
2022-08-20T08:09:06.390Z,23.87
2022-08-20T08:11:37.806Z,23.95
2022-08-20T08:14:08.251Z,24.30
2022-08-20T08:16:37.009Z,24.13
2022-08-20T08:19:08.918Z,24.43
2022-08-20T08:21:36.410Z,23.96
2022-08-20T08:24:04.436Z,24.28
2022-08-20T08:26:31.855Z,24.56
2022-08-20T08:28:59.266Z,24.55
2022-08-20T08:31:27.118Z,24.22
2022-08-20T08:33:54.756Z,24.66
2022-08-20T08:36:22.589Z,24.54
2022-08-20T08:38:50.161Z,24.50
2022-08-20T08:41:34.132Z,24.58
2022-08-20T08:44:21.845Z,24.73
2022-08-20T08:46:57.148Z,24.82
2022-08-20T08:49:38.130Z,24.62
2022-08-20T08:52:14.779Z,25.08
2022-08-20T08:54:48.865Z,24.97
2022-08-20T08:57:17.705Z,25.39
2022-08-20T09:00:02.358Z,25.62
2022-08-20T09:02:34.090Z,25.53
2022-08-20T09:05:05.075Z,25.47
2022-08-20T09:07:34.649Z,25.30
2022-08-20T09:10:02.507Z,25.13
2022-08-20T09:12:29.973Z,25.56
2022-08-20T09:14:57.561Z,25.61
2022-08-20T09:17:25.253Z,25.57
2022-08-20T09:19:52.672Z,25.50
2022-08-20T09:22:26.309Z,25.62
2022-08-20T09:24:57.044Z,25.74
2022-08-20T09:27:24.449Z,25.95
2022-08-20T09:29:53.543Z,25.93
2022-08-20T09:32:23.950Z,25.88
2022-08-20T09:34:56.410Z,26.21
2022-08-20T09:37:26.569Z,25.91
2022-08-20T09:39:54.547Z,25.96
2022-08-20T09:42:28.304Z,26.21
2022-08-20T09:44:56.596Z,26.28
2022-08-20T09:47:24.563Z,26.15
2022-08-20T09:49:52.563Z,26.23
2022-08-20T09:52:31.236Z,26.26
2022-08-20T09:55:01.896Z,26.30
2022-08-20T09:57:31.026Z,26.39
2022-08-20T10:00:02.442Z,26.50
2022-08-20T10:02:40.259Z,26.82
2022-08-20T10:05:09.325Z,26.98
2022-08-20T10:07:40.853Z,26.85
2022-08-20T10:10:11.450Z,26.92
2022-08-20T10:12:38.996Z,27.08
2022-08-20T10:15:07.633Z,27.02
2022-08-20T10:17:39.298Z,26.96
2022-08-20T10:20:09.107Z,26.88
2022-08-20T10:22:36.835Z,26.93
2022-08-20T10:25:05.620Z,27.29
2022-08-20T10:27:33.916Z,27.52
2022-08-20T10:30:01.584Z,27.65
2022-08-20T10:32:29.295Z,27.33
2022-08-20T10:34:56.800Z,27.25
2022-08-20T10:37:25.695Z,27.27
2022-08-20T10:39:54.532Z,27.50
2022-08-20T10:42:22.574Z,27.24
2022-08-20T10:44:50.124Z,27.49
2022-08-20T10:47:22.020Z,28.13
2022-08-20T10:49:51.807Z,27.91
2022-08-20T10:52:19.832Z,28.31
2022-08-20T10:54:47.704Z,28.30
2022-08-20T10:57:19.127Z,28.61
2022-08-20T10:59:49.225Z,28.72
2022-08-20T11:02:17.270Z,28.11
2022-08-20T11:04:45.437Z,28.80
2022-08-20T11:07:55.208Z,28.63
2022-08-20T11:10:22.924Z,28.99
2022-08-20T11:12:50.518Z,29.02
2022-08-20T11:15:18.157Z,28.88
2022-08-20T11:17:46.148Z,29.06
2022-08-20T11:20:16.564Z,29.12
2022-08-20T11:22:44.277Z,29.51
2022-08-20T11:25:12.193Z,29.53
2022-08-20T11:27:48.858Z,30.01
2022-08-20T11:30:23.703Z,29.39
2022-08-20T11:32:51.548Z,28.93
2022-08-20T11:38:19.172Z,29.33
2022-08-20T11:40:47.041Z,30.00
2022-08-20T11:43:17.015Z,30.34
2022-08-20T11:45:47.329Z,29.98
2022-08-20T11:48:15.262Z,29.63
2022-08-20T11:50:42.704Z,29.72
2022-08-20T11:53:10.238Z,30.17
2022-08-20T11:55:38.586Z,30.57
2022-08-20T11:58:06.728Z,29.78
2022-08-20T12:00:34.934Z,30.10
2022-08-20T12:03:25.492Z,30.78
2022-08-20T12:05:53.018Z,29.89
2022-08-20T12:08:26.985Z,30.83
2022-08-20T12:11:00.352Z,30.90
2022-08-20T12:13:49.198Z,30.66
2022-08-20T12:16:18.946Z,30.93
2022-08-20T12:18:48.535Z,31.39
2022-08-20T12:21:16.415Z,31.56
2022-08-20T12:23:44.347Z,31.52
2022-08-20T12:26:11.973Z,30.71
2022-08-20T12:28:39.454Z,31.46
2022-08-20T12:31:06.927Z,30.77
2022-08-20T12:33:34.532Z,31.12
2022-08-20T12:36:02.090Z,30.44
2022-08-20T12:38:29.522Z,31.00
2022-08-20T12:40:56.988Z,31.46
2022-08-20T12:43:25.358Z,31.34
2022-08-20T12:45:52.950Z,31.70
2022-08-20T12:48:20.963Z,32.19
2022-08-20T12:50:50.046Z,31.55
2022-08-20T12:53:17.633Z,31.20
2022-08-20T18:52:13.043Z,29.98
2022-08-20T18:54:49.041Z,29.85
2022-08-20T18:57:25.518Z,30.00
2022-08-20T19:00:11.733Z,29.96
2022-08-20T19:03:09.742Z,29.76
